createdAt,value
2023-04-15T00:04:28.404Z,100492.88
2023-04-15T00:09:31.115Z,100489.41
2023-04-15T00:14:35.142Z,100337.94
2023-04-15T00:19:37.470Z,100408.59
2023-04-15T00:24:40.451Z,100525.03
2023-04-15T00:29:42.948Z,100392.34
2023-04-15T00:34:45.953Z,100438.66
2023-04-15T00:39:48.334Z,100378.63
2023-04-15T00:44:50.801Z,100388.13
2023-04-15T00:49:53.714Z,100544.69
2023-04-15T00:54:56.012Z,100411.00
2023-04-15T00:59:58.689Z,100463.91
2023-04-15T01:05:01.361Z,100507.75
2023-04-15T01:10:05.093Z,100523.28
2023-04-15T01:15:08.452Z,100382.16
2023-04-15T01:20:11.954Z,100474.72
2023-04-15T01:25:19.706Z,100070.50
2023-04-15T01:30:22.198Z,100401.28
2023-04-15T01:35:24.528Z,100372.59
2023-04-15T01:40:27.034Z,100597.19
2023-04-15T01:45:30.619Z,100480.78
2023-04-15T01:50:34.469Z,100478.66
2023-04-15T01:55:38.043Z,100596.53
2023-04-15T02:00:45.817Z,100484.91
2023-04-15T02:05:49.672Z,100541.34
2023-04-15T02:10:53.259Z,100571.78
2023-04-15T02:15:57.809Z,100625.75
2023-04-15T02:21:01.450Z,100629.94
2023-04-15T02:26:04.955Z,100592.22
2023-04-15T02:31:09.965Z,100526.41
2023-04-15T02:36:13.755Z,100578.94
2023-04-15T02:41:17.785Z,100503.34
2023-04-15T02:46:23.344Z,100599.47
2023-04-15T02:51:26.984Z,100569.53
2023-04-15T02:56:31.298Z,100540.97
2023-04-15T03:01:34.942Z,100683.63
2023-04-15T03:06:38.558Z,100682.75
2023-04-15T03:11:43.992Z,100630.09
2023-04-15T03:16:47.534Z,100668.66
2023-04-15T03:21:53.408Z,100697.06
2023-04-15T03:26:58.184Z,100692.69
2023-04-15T03:32:02.219Z,100658.63
2023-04-15T03:37:09.760Z,100630.44
2023-04-15T03:42:13.397Z,100717.59
2023-04-15T03:47:16.901Z,100643.25
2023-04-15T03:52:21.792Z,100658.84
2023-04-15T03:57:25.335Z,100713.22
2023-04-15T04:02:29.026Z,100727.97
2023-04-15T04:07:32.749Z,100674.94
2023-04-15T04:12:36.387Z,100693.94
2023-04-15T04:17:40.025Z,100599.81
2023-04-15T04:22:43.617Z,100696.97
2023-04-15T04:27:47.477Z,100551.53
2023-04-15T04:32:52.015Z,100719.88
2023-04-15T04:37:55.636Z,100744.22
2023-04-15T04:42:59.241Z,100713.56
2023-04-15T04:48:02.901Z,100702.38
2023-04-15T04:53:06.582Z,100723.25
2023-04-15T04:58:10.109Z,100736.31
2023-04-15T05:03:13.860Z,100626.63
2023-04-15T05:08:17.481Z,100612.41
2023-04-15T05:13:22.791Z,100716.56
2023-04-15T05:18:26.516Z,100507.06
2023-04-15T05:23:30.076Z,100704.75
2023-04-15T05:28:33.626Z,100706.63
2023-04-15T05:33:37.423Z,100703.41
2023-04-15T05:38:41.390Z,100751.16
2023-04-15T05:43:46.397Z,100658.91
2023-04-15T05:48:49.969Z,100765.06
2023-04-15T05:53:53.651Z,100772.63
2023-04-15T05:58:57.259Z,100746.44
2023-04-15T06:04:00.854Z,100752.84
2023-04-15T06:09:05.101Z,100668.59
2023-04-15T06:14:08.758Z,100688.06
2023-04-15T06:19:12.762Z,100725.91
2023-04-15T06:24:16.497Z,100782.84
2023-04-15T06:29:20.041Z,100792.97
2023-04-15T06:34:23.666Z,100793.78
2023-04-15T06:39:27.418Z,100707.19
2023-04-15T06:44:33.295Z,100590.19
2023-04-15T06:49:37.507Z,100630.81
2023-04-15T06:54:41.255Z,100319.88
2023-04-15T06:59:44.763Z,100583.22
2023-04-15T07:25:01.769Z,100777.66
2023-04-15T07:30:05.855Z,100780.69
2023-04-15T07:35:10.136Z,100693.97
2023-04-15T07:40:15.010Z,100755.88
2023-04-15T07:45:18.649Z,100732.03
2023-04-15T07:50:23.359Z,100779.00
2023-04-15T07:55:28.253Z,100671.41
2023-04-15T08:00:32.487Z,100596.38
2023-04-15T08:05:35.970Z,100776.03
2023-04-15T08:10:39.475Z,100746.81
2023-04-15T08:15:43.701Z,100739.19
2023-04-15T08:20:48.108Z,100568.00
2023-04-15T08:25:51.616Z,100754.97
2023-04-15T08:30:55.967Z,100763.28
2023-04-15T08:35:59.498Z,100748.06
2023-04-15T08:41:26.952Z,100736.50
2023-04-15T08:46:33.216Z,100763.97
2023-04-15T08:51:37.054Z,100693.63
2023-04-15T08:56:41.109Z,100749.88
2023-04-15T09:01:44.699Z,100720.28
2023-04-15T09:06:48.458Z,100734.81
2023-04-15T09:11:51.989Z,100568.50
2023-04-15T09:17:28.470Z,100744.34
2023-04-15T09:23:02.661Z,100600.75
2023-04-15T09:28:06.660Z,100664.19
2023-04-15T09:33:11.348Z,100699.66
2023-04-15T09:38:15.050Z,100688.31
2023-04-15T09:43:18.908Z,100716.03
2023-04-15T09:48:26.830Z,100726.78
2023-04-15T09:53:31.819Z,100712.78
2023-04-15T09:58:37.501Z,100730.25
2023-04-15T10:03:42.665Z,100732.91
2023-04-15T10:08:46.768Z,100729.63
2023-04-15T10:13:51.584Z,100642.06
2023-04-15T10:18:56.861Z,100718.44
2023-04-15T10:24:02.387Z,100655.38
2023-04-15T10:29:06.498Z,100669.78
2023-04-15T10:34:10.531Z,100697.44
2023-04-15T10:39:45.641Z,100732.91
2023-04-15T10:44:52.301Z,100727.59
2023-04-15T10:50:00.839Z,100719.19
2023-04-15T10:55:16.369Z,100689.28
2023-04-15T11:00:21.017Z,100638.09
2023-04-15T11:05:54.014Z,100720.69
2023-04-15T11:10:57.694Z,100723.28
2023-04-15T11:16:02.231Z,100650.09
2023-04-15T11:21:07.753Z,100608.03
2023-04-15T11:26:14.221Z,100656.88
2023-04-15T11:31:20.419Z,100535.25
2023-04-15T11:36:28.251Z,100703.03
2023-04-15T11:41:32.209Z,100255.81
2023-04-15T11:46:36.002Z,100287.03
2023-04-15T11:51:39.881Z,100687.63
2023-04-15T11:56:42.350Z,100451.75
2023-04-15T12:01:46.987Z,100688.00
2023-04-15T12:06:49.913Z,100517.66
2023-04-15T12:11:56.074Z,100286.66
2023-04-15T12:17:03.311Z,100678.69
2023-04-15T12:22:16.152Z,100668.41
2023-04-15T12:27:29.799Z,100445.84
2023-04-15T12:32:47.936Z,100128.13
2023-04-15T12:37:57.823Z,100581.50
2023-04-15T12:48:37.923Z,100625.41
2023-04-15T12:53:47.439Z,100595.56
2023-04-15T12:58:55.041Z,100636.47
2023-04-15T13:04:15.202Z,100609.34
2023-04-15T13:09:29.379Z,100538.00
2023-04-15T13:14:37.775Z,100511.50
2023-04-15T13:19:59.991Z,100664.03
2023-04-15T13:25:22.632Z,100667.69
2023-04-15T13:30:52.254Z,100445.78
2023-04-15T13:36:01.743Z,100663.28
2023-04-15T13:46:52.698Z,100622.88
2023-04-15T13:52:15.154Z,100478.34
2023-04-15T14:03:01.936Z,100653.78
2023-04-15T14:08:10.020Z,100633.41
2023-04-15T14:19:00.566Z,100654.47
2023-04-15T14:24:08.075Z,100657.88
2023-04-15T14:29:11.767Z,100639.31
2023-04-15T14:34:14.553Z,100655.25
2023-04-15T14:39:24.180Z,100657.78
2023-04-15T14:44:29.334Z,100657.69
2023-04-15T14:49:32.814Z,100654.09
2023-04-15T14:54:35.412Z,100599.34
2023-04-15T14:59:37.811Z,100614.31
2023-04-15T15:04:41.083Z,100592.19
2023-04-15T15:09:43.576Z,100641.53
2023-04-15T15:14:47.018Z,100537.41
2023-04-15T15:19:49.440Z,100587.59
2023-04-15T15:24:52.064Z,100608.56
2023-04-15T15:30:11.349Z,100642.09
2023-04-15T15:35:16.985Z,100414.28
2023-04-15T15:40:19.567Z,100647.69
2023-04-15T15:45:22.468Z,100648.38
2023-04-15T15:50:24.865Z,100569.75
2023-04-15T15:55:27.883Z,100589.84
2023-04-15T16:00:30.372Z,100611.69
2023-04-15T16:05:32.737Z,100633.53
2023-04-15T16:10:35.473Z,100638.53
2023-04-15T16:15:38.069Z,100646.19
2023-04-15T16:20:40.711Z,100630.09
2023-04-15T16:25:44.468Z,100600.69
2023-04-15T16:31:02.274Z,100651.84
2023-04-15T16:36:07.304Z,100574.41
2023-04-15T16:41:10.068Z,100630.78
2023-04-15T16:46:12.461Z,100646.41
2023-04-15T16:51:14.836Z,100621.06
2023-04-15T16:56:17.340Z,100575.59
2023-04-15T17:01:20.748Z,100608.72
2023-04-15T17:06:23.196Z,100641.16
2023-04-15T17:11:26.474Z,100627.56
2023-04-15T17:16:30.853Z,100623.03
2023-04-15T17:21:33.477Z,100662.22
2023-04-15T17:26:37.839Z,100649.63
2023-04-15T17:32:04.045Z,100575.97
2023-04-15T17:37:29.408Z,100657.53
2023-04-15T17:42:51.787Z,100673.84
2023-04-15T17:48:14.749Z,100664.75
2023-04-15T17:53:40.134Z,100634.19
2023-04-15T17:59:06.283Z,100642.53
2023-04-15T18:04:31.620Z,100676.84
2023-04-15T18:09:56.193Z,100632.25
2023-04-15T18:15:19.020Z,100688.31
2023-04-15T18:20:41.463Z,100638.41
2023-04-15T18:25:45.983Z,100670.91
2023-04-15T18:30:48.698Z,100691.94
2023-04-15T18:35:51.336Z,100679.25
2023-04-15T18:40:57.160Z,100628.72
2023-04-15T18:46:04.213Z,100666.53
2023-04-15T18:51:09.672Z,100700.66
2023-04-15T18:56:13.106Z,100685.47
2023-04-15T19:01:15.858Z,100631.94
2023-04-15T19:06:21.061Z,100657.50
2023-04-15T19:11:30.962Z,100614.00
2023-04-15T19:16:33.415Z,100606.91
2023-04-15T19:21:35.915Z,100647.44
2023-04-15T19:26:38.446Z,100703.34
2023-04-15T19:31:40.908Z,100656.34
2023-04-15T19:36:43.333Z,100639.50
2023-04-15T19:41:57.970Z,100669.34
2023-04-15T19:47:00.475Z,100679.94
2023-04-15T19:52:04.546Z,100687.72
2023-04-15T19:57:07.053Z,100684.94
2023-04-15T20:02:09.681Z,100687.22
2023-04-15T20:07:12.231Z,100615.31
2023-04-15T20:12:49.807Z,100591.28
2023-04-15T20:17:37.446Z,100542.63
2023-04-15T20:22:39.983Z,100701.03
2023-04-15T20:27:42.468Z,100729.19
2023-04-15T20:32:44.939Z,100742.03
2023-04-15T20:37:47.466Z,100722.31
2023-04-15T20:42:56.840Z,100730.53
2023-04-15T20:47:59.385Z,100740.84
2023-04-15T20:53:02.031Z,100742.44
2023-04-15T20:58:04.736Z,100697.78
2023-04-15T21:03:07.370Z,100714.59
2023-04-15T21:08:10.420Z,100659.94
2023-04-15T21:13:15.544Z,100747.16
2023-04-15T21:18:17.874Z,100655.00
2023-04-15T21:23:20.236Z,100732.97
2023-04-15T21:28:22.861Z,100750.34
2023-04-15T21:33:25.602Z,100735.50
2023-04-15T21:38:28.051Z,100766.13
2023-04-15T21:43:30.379Z,100770.91
2023-04-15T21:48:32.805Z,100776.53
2023-04-15T21:53:35.253Z,100795.88
2023-04-15T21:58:37.730Z,100783.88
2023-04-15T22:03:40.496Z,100768.28
2023-04-15T22:08:54.890Z,100779.53
2023-04-15T22:13:59.099Z,100790.97
2023-04-15T22:19:03.010Z,100710.72
2023-04-15T22:24:33.923Z,100773.72
2023-04-15T22:29:28.505Z,100729.41
2023-04-15T22:34:30.841Z,100776.16
2023-04-15T22:39:33.092Z,100773.63
2023-04-15T22:44:35.354Z,100633.22
2023-04-15T22:49:37.646Z,100813.25
2023-04-15T22:54:42.667Z,100796.91
2023-04-15T22:59:45.011Z,100789.09
2023-04-15T23:04:47.458Z,100806.13
2023-04-15T23:09:49.808Z,100788.06
2023-04-15T23:14:52.066Z,100827.59
2023-04-15T23:19:54.341Z,100802.91
2023-04-15T23:24:56.867Z,100799.94
2023-04-15T23:29:59.288Z,100826.34
2023-04-15T23:35:02.288Z,100848.69
2023-04-15T23:40:06.823Z,100801.63
2023-04-15T23:45:10.211Z,100801.41
2023-04-15T23:50:21.609Z,100851.47
2023-04-15T23:55:26.824Z,100822.63
